createdAt,value
2023-02-26T00:00:53.659Z,101987.38
2023-02-26T00:06:00.488Z,102014.34
2023-02-26T00:11:02.350Z,102011.13
2023-02-26T00:16:11.041Z,102035.28
2023-02-26T00:21:20.391Z,102030.50
2023-02-26T00:26:23.953Z,102039.34
2023-02-26T00:31:26.097Z,102027.63
2023-02-26T00:36:45.775Z,102053.38
2023-02-26T00:41:47.491Z,102051.19
2023-02-26T00:47:05.780Z,102063.81
2023-02-26T00:52:19.242Z,102070.81
2023-02-26T00:57:21.074Z,102071.28
2023-02-26T01:02:22.847Z,102079.88
2023-02-26T01:07:25.392Z,102083.00
2023-02-26T01:12:27.214Z,102088.28
2023-02-26T01:17:35.771Z,102086.75
2023-02-26T01:22:52.086Z,102086.34
2023-02-26T01:27:56.818Z,102096.38
2023-02-26T01:33:20.260Z,102100.03
2023-02-26T01:38:36.886Z,102103.59
2023-02-26T01:44:03.293Z,102116.91
2023-02-26T01:49:12.151Z,102109.31
2023-02-26T01:54:14.819Z,102121.25
2023-02-26T01:59:24.164Z,102125.13
2023-02-26T02:04:26.827Z,102119.75
2023-02-26T02:09:28.642Z,102121.63
2023-02-26T02:15:00.747Z,102123.69
2023-02-26T02:20:35.800Z,102135.75
2023-02-26T02:26:14.558Z,102138.59
2023-02-26T02:31:19.168Z,102144.63
2023-02-26T02:36:34.377Z,102155.69
2023-02-26T02:41:43.126Z,102158.78
2023-02-26T02:46:48.738Z,102158.72
2023-02-26T02:52:03.483Z,102157.75
2023-02-26T02:57:24.252Z,102161.88
2023-02-26T03:02:36.473Z,102171.38
2023-02-26T03:07:46.698Z,102174.31
2023-02-26T03:12:48.335Z,102179.13
2023-02-26T03:18:05.177Z,102189.75
2023-02-26T03:23:14.363Z,102193.06
2023-02-26T03:28:44.916Z,102203.69
2023-02-26T03:34:08.833Z,102210.09
2023-02-26T03:39:20.254Z,102213.03
2023-02-26T03:44:27.441Z,102207.16
2023-02-26T03:49:38.888Z,102208.19
2023-02-26T03:54:46.237Z,102212.72
2023-02-26T03:59:47.812Z,102211.75
2023-02-26T04:04:56.227Z,102238.22
2023-02-26T04:09:57.775Z,102225.69
2023-02-26T04:14:59.650Z,102249.19
2023-02-26T04:20:01.159Z,102254.66
2023-02-26T04:25:02.666Z,102267.47
2023-02-26T04:30:04.460Z,102267.34
2023-02-26T04:35:06.027Z,102288.41
2023-02-26T04:40:07.950Z,102292.66
2023-02-26T04:45:09.820Z,102295.75
2023-02-26T04:50:11.895Z,102293.50
2023-02-26T04:55:13.429Z,102299.50
2023-02-26T05:00:15.931Z,102305.25
2023-02-26T05:05:17.761Z,102312.72
2023-02-26T05:10:19.748Z,102321.44
2023-02-26T05:15:21.235Z,102321.94
2023-02-26T05:20:22.762Z,102321.06
2023-02-26T05:25:24.420Z,102322.53
2023-02-26T05:30:25.941Z,102328.16
2023-02-26T05:35:27.508Z,102332.00
2023-02-26T05:40:29.009Z,102347.56
2023-02-26T05:45:30.539Z,102350.91
2023-02-26T05:50:32.020Z,102347.84
2023-02-26T05:55:33.503Z,102351.63
2023-02-26T06:00:35.065Z,102364.16
2023-02-26T06:05:37.184Z,102372.66
2023-02-26T06:10:38.761Z,102371.00
2023-02-26T06:15:40.268Z,102391.84
2023-02-26T06:20:41.800Z,102391.91
2023-02-26T06:25:43.348Z,102400.72
2023-02-26T06:30:45.163Z,102412.97
2023-02-26T06:35:47.076Z,102424.56
2023-02-26T06:40:48.602Z,102423.94
2023-02-26T06:45:50.203Z,102429.06
2023-02-26T06:50:52.412Z,102433.34
2023-02-26T06:55:53.933Z,102442.28
2023-02-26T07:00:55.546Z,102464.81
2023-02-26T07:06:03.516Z,102467.63
2023-02-26T07:11:11.769Z,102482.03
2023-02-26T07:16:13.289Z,102496.69
2023-02-26T07:21:14.940Z,102503.47
2023-02-26T07:26:17.579Z,102516.56
2023-02-26T07:31:19.176Z,102519.88
2023-02-26T07:36:20.800Z,102521.13
2023-02-26T07:41:22.508Z,102525.00
2023-02-26T07:46:24.422Z,102529.66
2023-02-26T07:51:26.574Z,102537.31
2023-02-26T07:56:28.481Z,102544.13
2023-02-26T08:01:30.152Z,102549.16
2023-02-26T08:06:31.783Z,102544.22
2023-02-26T08:11:36.545Z,102550.31
2023-02-26T08:16:38.485Z,102546.66
2023-02-26T08:21:40.446Z,102555.59
2023-02-26T08:26:42.342Z,102562.94
2023-02-26T08:31:44.252Z,102568.63
2023-02-26T08:36:45.867Z,102572.16
2023-02-26T08:41:47.352Z,102584.44
2023-02-26T08:46:48.893Z,102584.03
2023-02-26T08:51:50.427Z,102597.13
2023-02-26T08:56:53.423Z,102604.38
2023-02-26T09:01:54.970Z,102608.66
2023-02-26T09:06:56.538Z,102611.75
2023-02-26T09:11:58.987Z,102622.00
2023-02-26T09:17:00.491Z,102636.03
2023-02-26T09:22:02.037Z,102642.75
2023-02-26T09:27:03.811Z,102643.56
2023-02-26T09:32:08.489Z,102646.78
2023-02-26T09:37:10.401Z,102656.06
2023-02-26T09:42:49.342Z,102663.31
2023-02-26T09:47:54.155Z,102661.53
2023-02-26T09:53:03.132Z,102674.97
2023-02-26T09:58:11.412Z,102672.03
2023-02-26T10:03:29.893Z,102678.66
2023-02-26T10:08:39.916Z,102692.25
2023-02-26T10:13:57.696Z,102684.31
2023-02-26T10:19:14.543Z,102707.50
2023-02-26T10:24:23.178Z,102694.00
2023-02-26T10:29:36.584Z,102710.69
2023-02-26T10:34:45.187Z,102708.47
2023-02-26T10:40:09.182Z,102722.44
2023-02-26T10:45:27.801Z,102719.28
2023-02-26T10:50:29.611Z,102729.41
2023-02-26T10:55:50.115Z,102721.78
2023-02-26T11:00:54.357Z,102728.81
2023-02-26T11:05:56.846Z,102730.19
2023-02-26T11:11:01.419Z,102732.66
2023-02-26T11:16:06.429Z,102733.09
2023-02-26T11:21:16.769Z,102731.69
2023-02-26T11:26:25.624Z,102727.66
2023-02-26T11:31:27.981Z,102736.25
2023-02-26T11:36:31.842Z,102730.81
2023-02-26T11:41:38.136Z,102737.00
2023-02-26T11:46:46.430Z,102724.97
2023-02-26T11:52:01.194Z,102733.16
2023-02-26T11:57:06.445Z,102741.63
2023-02-26T12:02:13.423Z,102729.03
2023-02-26T12:07:16.808Z,102728.66
2023-02-26T12:12:52.514Z,102727.59
2023-02-26T12:18:09.225Z,102717.25
2023-02-26T12:23:28.994Z,102723.78
2023-02-26T12:29:08.316Z,102724.59
2023-02-26T12:34:15.674Z,102733.34
2023-02-26T12:39:50.716Z,102725.84
2023-02-26T12:45:13.861Z,102724.44
2023-02-26T12:50:30.448Z,102729.09
2023-02-26T12:56:01.370Z,102733.53
2023-02-26T13:01:28.334Z,102726.06
2023-02-26T13:06:50.175Z,102732.81
2023-02-26T13:12:28.463Z,102731.84
2023-02-26T13:18:05.196Z,102732.34
2023-02-26T13:23:13.995Z,102741.34
2023-02-26T13:28:34.578Z,102745.41
2023-02-26T13:33:37.606Z,102743.66
2023-02-26T13:38:42.053Z,102736.28
2023-02-26T13:43:49.482Z,102730.50
2023-02-26T13:49:13.877Z,102727.44
2023-02-26T13:54:21.669Z,102720.44
2023-02-26T13:59:30.409Z,102733.28
2023-02-26T14:04:49.103Z,102723.72
2023-02-26T14:10:26.293Z,102733.56
2023-02-26T14:15:39.449Z,102733.66
2023-02-26T14:20:40.965Z,102735.16
2023-02-26T14:25:53.236Z,102735.44
2023-02-26T14:31:03.664Z,102733.84
2023-02-26T14:36:10.162Z,102735.09
2023-02-26T14:41:28.550Z,102737.38
2023-02-26T14:46:30.883Z,102733.16
2023-02-26T14:52:00.200Z,102731.59
2023-02-26T14:57:07.794Z,102738.13
2023-02-26T15:02:32.138Z,102740.69
2023-02-26T15:07:58.446Z,102741.72
2023-02-26T15:13:05.628Z,102752.81
2023-02-26T15:18:39.497Z,102737.28
2023-02-26T15:23:42.684Z,102742.00
2023-02-26T15:28:44.815Z,102749.06
2023-02-26T15:33:50.003Z,102749.97
2023-02-26T15:38:57.473Z,102742.44
2023-02-26T15:44:03.130Z,102762.31
2023-02-26T15:49:13.672Z,102754.13
2023-02-26T15:54:19.563Z,102753.25
2023-02-26T15:59:25.471Z,102755.69
2023-02-26T16:04:27.074Z,102751.16
2023-02-26T16:09:35.992Z,102751.44
2023-02-26T16:14:45.413Z,102753.78
2023-02-26T16:19:50.441Z,102749.34
2023-02-26T16:25:25.372Z,102759.38
2023-02-26T16:30:33.637Z,102756.81
2023-02-26T16:35:42.070Z,102767.00
2023-02-26T16:40:44.942Z,102764.81
2023-02-26T16:45:51.011Z,102775.31
2023-02-26T16:51:02.316Z,102779.94
2023-02-26T16:56:05.137Z,102787.56
2023-02-26T17:01:14.872Z,102796.16
2023-02-26T17:06:19.596Z,102796.47
2023-02-26T17:11:30.427Z,102804.88
2023-02-26T17:16:31.927Z,102811.56
2023-02-26T17:21:36.201Z,102815.59
2023-02-26T17:26:37.731Z,102817.72
2023-02-26T17:31:43.555Z,102817.31
2023-02-26T17:36:46.303Z,102825.41
2023-02-26T17:41:47.857Z,102830.16
2023-02-26T17:46:49.503Z,102840.53
2023-02-26T17:51:53.955Z,102840.75
2023-02-26T17:56:55.526Z,102829.94
2023-02-26T18:01:58.016Z,102830.59
2023-02-26T18:06:59.479Z,102841.22
2023-02-26T18:12:00.948Z,102844.75
2023-02-26T18:17:02.533Z,102852.91
2023-02-26T18:22:04.326Z,102851.09
2023-02-26T18:27:08.537Z,102852.19
2023-02-26T18:32:18.569Z,102856.66
2023-02-26T18:37:22.767Z,102860.66
2023-02-26T18:42:27.147Z,102863.44
2023-02-26T18:47:29.928Z,102863.44
2023-02-26T18:52:31.809Z,102870.66
2023-02-26T18:57:34.232Z,102870.59
2023-02-26T19:02:35.984Z,102868.88
2023-02-26T19:07:37.984Z,102872.97
2023-02-26T19:12:39.613Z,102876.06
2023-02-26T19:17:42.314Z,102871.22
2023-02-26T19:22:45.636Z,102876.84
2023-02-26T19:27:47.212Z,102880.28
2023-02-26T19:32:49.795Z,102880.41
2023-02-26T19:37:51.368Z,102886.13
2023-02-26T19:42:52.879Z,102891.34
2023-02-26T19:47:54.462Z,102898.38
2023-02-26T19:52:56.196Z,102896.09
2023-02-26T19:57:57.671Z,102897.63
2023-02-26T20:02:59.247Z,102902.81
2023-02-26T20:08:00.824Z,102900.28
2023-02-26T20:13:02.534Z,102909.09
2023-02-26T20:18:04.077Z,102902.47
2023-02-26T20:23:05.558Z,102899.53
2023-02-26T20:28:07.195Z,102911.94
2023-02-26T20:33:08.839Z,102906.75
2023-02-26T20:38:10.937Z,102915.16
2023-02-26T20:43:12.467Z,102914.88
2023-02-26T20:48:13.970Z,102922.19
2023-02-26T20:53:15.623Z,102925.81
2023-02-26T20:58:17.351Z,102925.44
2023-02-26T21:03:18.816Z,102930.03
2023-02-26T21:08:20.458Z,102939.97
2023-02-26T21:13:22.048Z,102935.97
2023-02-26T21:18:23.604Z,102943.41
2023-02-26T21:23:25.155Z,102948.88
2023-02-26T21:28:26.816Z,102945.00
2023-02-26T21:33:28.341Z,102955.38
2023-02-26T21:38:29.935Z,102949.63
2023-02-26T21:43:31.431Z,102957.34
2023-02-26T21:48:33.034Z,102960.56
2023-02-26T21:53:34.544Z,102959.09
2023-02-26T21:58:36.025Z,102969.84
2023-02-26T22:03:38.211Z,102962.63
2023-02-26T22:08:39.669Z,102965.81
2023-02-26T22:13:41.198Z,102962.81
2023-02-26T22:18:42.910Z,102963.47
2023-02-26T22:23:44.559Z,102975.44
2023-02-26T22:28:46.025Z,102966.25
2023-02-26T22:33:47.570Z,102960.91
2023-02-26T22:38:49.245Z,102967.84
2023-02-26T22:43:53.585Z,102971.41
2023-02-26T22:48:55.979Z,102978.56
2023-02-26T22:53:57.616Z,102972.50
2023-02-26T22:58:59.151Z,102981.47
2023-02-26T23:04:00.797Z,102987.66
2023-02-26T23:09:03.527Z,102985.13
2023-02-26T23:14:05.044Z,102988.78
2023-02-26T23:19:06.616Z,102989.91
2023-02-26T23:24:08.170Z,102989.03
2023-02-26T23:29:09.837Z,103001.44
2023-02-26T23:34:11.363Z,102997.19
2023-02-26T23:39:15.241Z,102998.34
2023-02-26T23:44:16.758Z,102996.81
2023-02-26T23:49:18.414Z,102991.47
2023-02-26T23:54:19.948Z,102993.28
2023-02-26T23:59:21.506Z,103008.88
